SCW8647 ESMS-LPPR
Flight info
| Callsign | SCW8647 |
|---|---|
| Flight time | 3h 55m |
| Altitude | 30000 |
| Route | DISGO DCT DEMIR N872 PAM/N0406F310 N872 MEDIL DCT CMB DCT KIHVI UN872 ERIGA UZ218 FUJTI DCT BAKUP DCT ROVAK DCT ASPOR |
| Aircraft | RJ1H/M-SDFGIRWY/LB1 |
Departure
| Time | 2026-05-04 07:52 |
|---|---|
| Airport | Malmö Sturup Airport (ESMS) |
Arrival
| Time | 2026-05-04 11:47 |
|---|---|
| Airport | Francisco de Sá Carneiro Airport (LPPR) |
| Time | Latitude | Longitude | Altitude | Speed | Heading |
|---|---|---|---|---|---|
| 2026-05-04 07:08 | 55.54020 | 13.36968 | 231 ft | 0 kts | 353° |
| 2026-05-04 07:38 | 55.53969 | 13.36977 | 232 ft | 4 kts | 7° |
| 2026-05-04 07:38 | 55.53950 | 13.36955 | 235 ft | 4 kts | 73° |
| 2026-05-04 07:38 | 55.53947 | 13.36923 | 232 ft | 0 kts | 83° |
| 2026-05-04 07:46 | 55.53948 | 13.36925 | 231 ft | 1 kts | 83° |
| 2026-05-04 07:46 | 55.53950 | 13.36961 | 232 ft | 5 kts | 83° |
| 2026-05-04 07:46 | 55.53956 | 13.37045 | 231 ft | 9 kts | 83° |
| 2026-05-04 07:46 | 55.53964 | 13.37173 | 231 ft | 12 kts | 83° |
| 2026-05-04 07:47 | 55.54037 | 13.37242 | 234 ft | 15 kts | 355° |
| 2026-05-04 07:47 | 55.54149 | 13.37221 | 232 ft | 16 kts | 353° |
| 2026-05-04 07:47 | 55.54256 | 13.37198 | 231 ft | 15 kts | 353° |
| 2026-05-04 07:49 | 55.54729 | 13.37211 | 230 ft | 0 kts | 24° |
| 2026-05-04 07:50 | 55.54737 | 13.37216 | 230 ft | 4 kts | 24° |
| 2026-05-04 07:50 | 55.54779 | 13.37261 | 231 ft | 11 kts | 52° |
| 2026-05-04 07:50 | 55.54762 | 13.37383 | 230 ft | 12 kts | 158° |
| 2026-05-04 07:50 | 55.54724 | 13.37397 | 230 ft | 0 kts | 172° |
| 2026-05-04 07:51 | 55.54572 | 13.37428 | 231 ft | 46 kts | 173° |
| 2026-05-04 07:51 | 55.54106 | 13.37523 | 241 ft | 86 kts | 173° |
| 2026-05-04 07:51 | 55.53391 | 13.37672 | 238 ft | 119 kts | 173° |
| 2026-05-04 07:51 | 55.52496 | 13.37855 | 377 ft | 131 kts | 175° |
| 2026-05-04 07:52 | 55.51581 | 13.38045 | 647 ft | 132 kts | 177° |
| 2026-05-04 07:52 | 55.50679 | 13.38294 | 976 ft | 133 kts | 177° |
| 2026-05-04 07:52 | 55.49744 | 13.38570 | 1187 ft | 143 kts | 178° |
| 2026-05-04 07:52 | 55.48748 | 13.38875 | 1405 ft | 150 kts | 179° |
| 2026-05-04 07:53 | 55.47747 | 13.39052 | 1797 ft | 135 kts | 188° |
| 2026-05-04 07:54 | 55.38893 | 13.39960 | 2687 ft | 231 kts | 180° |
| 2026-05-04 07:55 | 55.37239 | 13.40178 | 2987 ft | 246 kts | 181° |
| 2026-05-04 07:55 | 55.35494 | 13.40434 | 3379 ft | 255 kts | 180° |
| 2026-05-04 07:55 | 55.33708 | 13.40640 | 3802 ft | 259 kts | 188° |
| 2026-05-04 07:55 | 55.32045 | 13.39649 | 3976 ft | 248 kts | 223° |
| 2026-05-04 07:56 | 55.30927 | 13.37443 | 4215 ft | 238 kts | 236° |
| 2026-05-04 07:56 | 55.29912 | 13.35147 | 4785 ft | 241 kts | 236° |
| 2026-05-04 07:56 | 55.28904 | 13.32773 | 5239 ft | 244 kts | 237° |
| 2026-05-04 07:56 | 55.27905 | 13.30357 | 5754 ft | 245 kts | 237° |
| 2026-05-04 07:57 | 55.26899 | 13.27942 | 6316 ft | 246 kts | 237° |
| 2026-05-04 07:57 | 55.25879 | 13.25512 | 6897 ft | 247 kts | 237° |
| 2026-05-04 07:57 | 55.24846 | 13.23100 | 7559 ft | 247 kts | 236° |
| 2026-05-04 07:57 | 55.23826 | 13.20727 | 8260 ft | 247 kts | 236° |
| 2026-05-04 07:58 | 55.22781 | 13.18325 | 8998 ft | 248 kts | 236° |
| 2026-05-04 07:58 | 55.21706 | 13.15903 | 9780 ft | 249 kts | 235° |
| 2026-05-04 07:58 | 55.20636 | 13.13506 | 10331 ft | 259 kts | 235° |
| 2026-05-04 07:58 | 55.19497 | 13.10941 | 10669 ft | 275 kts | 235° |
| 2026-05-04 07:59 | 55.18294 | 13.08215 | 10969 ft | 289 kts | 235° |
| 2026-05-04 07:59 | 55.17031 | 13.05376 | 11298 ft | 299 kts | 234° |
| 2026-05-04 07:59 | 55.15947 | 13.02295 | 11765 ft | 299 kts | 253° |
| 2026-05-04 07:59 | 55.15734 | 12.98687 | 12255 ft | 301 kts | 269° |
| 2026-05-04 08:00 | 55.15702 | 12.95006 | 12740 ft | 303 kts | 267° |
| 2026-05-04 08:00 | 55.15631 | 12.91314 | 13226 ft | 305 kts | 266° |
| 2026-05-04 08:00 | 55.15563 | 12.87585 | 13705 ft | 307 kts | 266° |
| 2026-05-04 08:02 | 55.14026 | 12.61291 | 16466 ft | 316 kts | 258° |
| 2026-05-04 08:02 | 55.13622 | 12.57510 | 16872 ft | 317 kts | 258° |
| 2026-05-04 08:02 | 55.13230 | 12.53711 | 17233 ft | 319 kts | 259° |
| 2026-05-04 08:03 | 55.12849 | 12.49889 | 17608 ft | 320 kts | 258° |
| 2026-05-04 08:03 | 55.12461 | 12.46046 | 17986 ft | 321 kts | 259° |
| 2026-05-04 08:03 | 55.12076 | 12.42177 | 18333 ft | 323 kts | 258° |
| 2026-05-04 08:03 | 55.11680 | 12.38361 | 18651 ft | 324 kts | 258° |
| 2026-05-04 08:04 | 55.11290 | 12.34478 | 18976 ft | 325 kts | 258° |
| 2026-05-04 08:04 | 55.10887 | 12.30578 | 19278 ft | 327 kts | 258° |
| 2026-05-04 08:04 | 55.10484 | 12.26669 | 19600 ft | 328 kts | 258° |
| 2026-05-04 08:04 | 55.10077 | 12.22744 | 19915 ft | 329 kts | 258° |
| 2026-05-04 08:05 | 55.09670 | 12.18790 | 20222 ft | 331 kts | 258° |
| 2026-05-04 08:05 | 55.09263 | 12.14825 | 20525 ft | 332 kts | 258° |
| 2026-05-04 08:05 | 55.08854 | 12.10846 | 20830 ft | 335 kts | 258° |
| 2026-05-04 08:05 | 55.08447 | 12.06835 | 21105 ft | 336 kts | 258° |
| 2026-05-04 08:06 | 55.08033 | 12.02805 | 21413 ft | 338 kts | 258° |
| 2026-05-04 08:06 | 55.07618 | 11.98751 | 21695 ft | 340 kts | 258° |
| 2026-05-04 08:06 | 55.07201 | 11.94692 | 21985 ft | 341 kts | 258° |
| 2026-05-04 08:06 | 55.06784 | 11.90613 | 22282 ft | 342 kts | 258° |
| 2026-05-04 08:08 | 55.03759 | 11.61671 | 24132 ft | 351 kts | 257° |
| 2026-05-04 08:08 | 55.03307 | 11.57487 | 24350 ft | 352 kts | 257° |
| 2026-05-04 08:10 | 54.99688 | 11.23809 | 26496 ft | 347 kts | 257° |
| 2026-05-04 08:11 | 54.99215 | 11.19697 | 26814 ft | 345 kts | 257° |
| 2026-05-04 08:11 | 54.98310 | 11.11514 | 27385 ft | 343 kts | 257° |
| 2026-05-04 08:11 | 54.97866 | 11.07446 | 27654 ft | 341 kts | 257° |
| 2026-05-04 08:12 | 54.97411 | 11.03399 | 27915 ft | 340 kts | 257° |
| 2026-05-04 08:12 | 54.96960 | 10.99363 | 28193 ft | 339 kts | 257° |
| 2026-05-04 08:12 | 54.96511 | 10.95344 | 28466 ft | 338 kts | 257° |
| 2026-05-04 08:12 | 54.96061 | 10.91322 | 28642 ft | 340 kts | 257° |
| 2026-05-04 08:13 | 54.95606 | 10.87284 | 28871 ft | 339 kts | 257° |
| 2026-05-04 08:13 | 54.95151 | 10.83261 | 29103 ft | 339 kts | 257° |
| 2026-05-04 08:13 | 54.94694 | 10.79247 | 29366 ft | 337 kts | 257° |
| 2026-05-04 08:13 | 54.94237 | 10.75244 | 29615 ft | 337 kts | 257° |
| 2026-05-04 08:14 | 54.93782 | 10.71264 | 29836 ft | 334 kts | 257° |
| 2026-05-04 08:14 | 54.93326 | 10.67296 | 29914 ft | 332 kts | 257° |
| 2026-05-04 08:16 | 54.89706 | 10.36112 | 29947 ft | 331 kts | 257° |
| 2026-05-04 08:16 | 54.88780 | 10.28283 | 29956 ft | 330 kts | 257° |
| 2026-05-04 08:17 | 54.87858 | 10.20512 | 29958 ft | 331 kts | 257° |
| 2026-05-04 08:17 | 54.86921 | 10.12687 | 29958 ft | 331 kts | 257° |
| 2026-05-04 08:19 | 54.83427 | 9.85648 | 29964 ft | 324 kts | 245° |
| 2026-05-04 08:19 | 54.82332 | 9.82229 | 29965 ft | 325 kts | 240° |
| 2026-05-04 08:20 | 54.79803 | 9.75659 | 29965 ft | 330 kts | 237° |
| 2026-05-04 08:20 | 54.77090 | 9.69170 | 29964 ft | 333 kts | 237° |
| 2026-05-04 08:21 | 54.74387 | 9.62676 | 29963 ft | 332 kts | 237° |
| 2026-05-04 08:21 | 54.71689 | 9.56191 | 29962 ft | 332 kts | 237° |
| 2026-05-04 08:22 | 54.68992 | 9.49718 | 29960 ft | 332 kts | 237° |
| 2026-05-04 08:24 | 54.58416 | 9.24136 | 29968 ft | 324 kts | 237° |
| 2026-05-04 08:24 | 54.56216 | 9.18885 | 29969 ft | 324 kts | 237° |
| 2026-05-04 08:25 | 54.53570 | 9.12577 | 29974 ft | 326 kts | 237° |
| 2026-05-04 08:25 | 54.50885 | 9.06228 | 29974 ft | 329 kts | 237° |
| 2026-05-04 08:27 | 54.40172 | 8.80978 | 29969 ft | 319 kts | 237° |
| 2026-05-04 08:28 | 54.37609 | 8.74845 | 29980 ft | 319 kts | 237° |
| 2026-05-04 08:28 | 54.34984 | 8.68694 | 29983 ft | 320 kts | 237° |
| 2026-05-04 08:29 | 54.32349 | 8.62547 | 29986 ft | 320 kts | 237° |
| 2026-05-04 08:31 | 54.21611 | 8.38119 | 29992 ft | 325 kts | 230° |
| 2026-05-04 08:33 | 54.08615 | 8.17145 | 30000 ft | 322 kts | 228° |
| 2026-05-04 08:35 | 53.95607 | 7.96232 | 29993 ft | 324 kts | 227° |
| 2026-05-04 08:35 | 53.92300 | 7.90969 | 30004 ft | 326 kts | 227° |
| 2026-05-04 08:37 | 53.80820 | 7.72781 | 29996 ft | 322 kts | 227° |
| 2026-05-04 08:38 | 53.77538 | 7.67593 | 29988 ft | 323 kts | 227° |
| 2026-05-04 08:38 | 53.74259 | 7.62411 | 29965 ft | 323 kts | 227° |
| 2026-05-04 08:40 | 53.60843 | 7.41388 | 29995 ft | 329 kts | 226° |
| 2026-05-04 08:41 | 53.57483 | 7.36156 | 29998 ft | 329 kts | 226° |
| 2026-05-04 08:41 | 53.54148 | 7.30966 | 29998 ft | 329 kts | 226° |
| 2026-05-04 08:42 | 53.50774 | 7.25719 | 29975 ft | 331 kts | 226° |
| 2026-05-04 08:42 | 53.47369 | 7.20474 | 29996 ft | 332 kts | 225° |
| 2026-05-04 08:43 | 53.43975 | 7.15271 | 29995 ft | 331 kts | 225° |
| 2026-05-04 08:43 | 53.40572 | 7.10050 | 29991 ft | 331 kts | 225° |
| 2026-05-04 08:44 | 53.37177 | 7.04832 | 29990 ft | 331 kts | 225° |
| 2026-05-04 08:46 | 53.24684 | 6.82336 | 29993 ft | 330 kts | 231° |
| 2026-05-04 08:46 | 53.21660 | 6.76628 | 29995 ft | 330 kts | 230° |
| 2026-05-04 08:47 | 53.18625 | 6.70898 | 29991 ft | 330 kts | 230° |
| 2026-05-04 08:47 | 53.15591 | 6.65155 | 29992 ft | 330 kts | 231° |
| 2026-05-04 08:48 | 53.12632 | 6.59354 | 29998 ft | 326 kts | 231° |
| 2026-05-04 08:48 | 53.09694 | 6.53620 | 29990 ft | 325 kts | 231° |
| 2026-05-04 08:49 | 53.06745 | 6.47880 | 29967 ft | 327 kts | 231° |
| 2026-05-04 08:50 | 52.96268 | 6.27523 | 29984 ft | 332 kts | 230° |
| 2026-05-04 08:51 | 52.93246 | 6.21714 | 29985 ft | 332 kts | 230° |
| 2026-05-04 08:51 | 52.90229 | 6.15913 | 29984 ft | 333 kts | 230° |
| 2026-05-04 08:52 | 52.87196 | 6.10096 | 29982 ft | 333 kts | 230° |
| 2026-05-04 08:52 | 52.84168 | 6.04301 | 29986 ft | 333 kts | 230° |
| 2026-05-04 08:54 | 52.72017 | 5.81208 | 29981 ft | 333 kts | 230° |
| 2026-05-04 08:55 | 52.68966 | 5.75443 | 29972 ft | 333 kts | 230° |
| 2026-05-04 08:55 | 52.65914 | 5.69685 | 29973 ft | 333 kts | 230° |
| 2026-05-04 09:01 | 52.33489 | 5.09734 | 29992 ft | 336 kts | 218° |
| 2026-05-04 09:01 | 52.29422 | 5.05833 | 29992 ft | 340 kts | 210° |
| 2026-05-04 09:02 | 52.25178 | 5.02474 | 29987 ft | 341 kts | 209° |
| 2026-05-04 09:02 | 52.20889 | 4.99151 | 29986 ft | 341 kts | 209° |
| 2026-05-04 09:02 | 52.18745 | 4.97483 | 30154 ft | 341 kts | 209° |
| 2026-05-04 09:03 | 52.16600 | 4.95813 | 30288 ft | 342 kts | 209° |
| 2026-05-04 09:03 | 52.14452 | 4.94128 | 30435 ft | 343 kts | 209° |
| 2026-05-04 09:03 | 52.12302 | 4.92436 | 30611 ft | 343 kts | 209° |
| 2026-05-04 09:03 | 52.10150 | 4.90742 | 30787 ft | 343 kts | 209° |
| 2026-05-04 09:04 | 52.08000 | 4.89045 | 30930 ft | 344 kts | 209° |
| 2026-05-04 09:04 | 52.03723 | 4.85642 | 30965 ft | 341 kts | 209° |
| 2026-05-04 09:05 | 51.99457 | 4.82243 | 30957 ft | 341 kts | 209° |
| 2026-05-04 09:05 | 51.95204 | 4.78909 | 30959 ft | 342 kts | 209° |
| 2026-05-04 09:06 | 51.90913 | 4.75562 | 30959 ft | 342 kts | 208° |
| 2026-05-04 09:08 | 51.73776 | 4.62261 | 30971 ft | 341 kts | 208° |
| 2026-05-04 09:08 | 51.69494 | 4.58935 | 30966 ft | 341 kts | 208° |
| 2026-05-04 09:09 | 51.65205 | 4.55593 | 30973 ft | 342 kts | 208° |
| 2026-05-04 09:09 | 51.60915 | 4.52252 | 30979 ft | 342 kts | 208° |
| 2026-05-04 09:10 | 51.56629 | 4.48930 | 30979 ft | 342 kts | 208° |
| 2026-05-04 09:10 | 51.52369 | 4.45660 | 30983 ft | 341 kts | 208° |
| 2026-05-04 09:11 | 51.48081 | 4.42376 | 30976 ft | 341 kts | 207° |
| 2026-05-04 09:11 | 51.43780 | 4.39109 | 30980 ft | 341 kts | 207° |
| 2026-05-04 09:12 | 51.40207 | 4.36412 | 30983 ft | 341 kts | 207° |
| 2026-05-04 09:14 | 51.23089 | 4.23448 | 31003 ft | 340 kts | 207° |
| 2026-05-04 09:14 | 51.18829 | 4.20224 | 31019 ft | 339 kts | 207° |
| 2026-05-04 09:15 | 51.14501 | 4.17165 | 31145 ft | 343 kts | 202° |
| 2026-05-04 09:15 | 51.09979 | 4.14704 | 31146 ft | 342 kts | 201° |
| 2026-05-04 09:17 | 50.89877 | 4.03857 | 30993 ft | 339 kts | 201° |
| 2026-05-04 09:18 | 50.85442 | 4.01309 | 30988 ft | 338 kts | 204° |
| 2026-05-04 09:18 | 50.81079 | 3.98467 | 31101 ft | 339 kts | 205° |
| 2026-05-04 09:19 | 50.76719 | 3.95616 | 31193 ft | 338 kts | 204° |
| 2026-05-04 09:19 | 50.72360 | 3.92827 | 31203 ft | 340 kts | 204° |
| 2026-05-04 09:20 | 50.70203 | 3.91451 | 31094 ft | 337 kts | 204° |
| 2026-05-04 09:20 | 50.68033 | 3.90076 | 31032 ft | 335 kts | 204° |
| 2026-05-04 09:20 | 50.63702 | 3.87336 | 30996 ft | 335 kts | 204° |
| 2026-05-04 09:21 | 50.59379 | 3.84603 | 30993 ft | 335 kts | 204° |
| 2026-05-04 09:21 | 50.55074 | 3.81801 | 30989 ft | 334 kts | 205° |
| 2026-05-04 09:22 | 50.50808 | 3.78850 | 30994 ft | 334 kts | 205° |
| 2026-05-04 09:22 | 50.46571 | 3.75963 | 30997 ft | 334 kts | 205° |
| 2026-05-04 09:23 | 50.42297 | 3.73060 | 30995 ft | 335 kts | 205° |
| 2026-05-04 09:23 | 50.38017 | 3.70156 | 30996 ft | 335 kts | 205° |
| 2026-05-04 09:25 | 50.30020 | 3.48831 | 31000 ft | 348 kts | 247° |
| 2026-05-04 09:25 | 50.29293 | 3.45213 | 30994 ft | 347 kts | 246° |
| 2026-05-04 09:26 | 50.27771 | 3.38062 | 30988 ft | 346 kts | 245° |
| 2026-05-04 09:26 | 50.26211 | 3.30935 | 30988 ft | 347 kts | 245° |
| 2026-05-04 09:27 | 50.24645 | 3.23835 | 30996 ft | 347 kts | 245° |
| 2026-05-04 09:27 | 50.22967 | 3.16762 | 30999 ft | 344 kts | 233° |
| 2026-05-04 09:28 | 50.21364 | 3.14106 | 31026 ft | 336 kts | 213° |
| 2026-05-04 09:28 | 50.19381 | 3.12160 | 31018 ft | 337 kts | 209° |
| 2026-05-04 09:28 | 50.15231 | 3.08714 | 30988 ft | 338 kts | 206° |
| 2026-05-04 09:29 | 50.11049 | 3.05378 | 30986 ft | 337 kts | 206° |
| 2026-05-04 09:29 | 50.06880 | 3.02032 | 30985 ft | 337 kts | 206° |
| 2026-05-04 09:30 | 50.02754 | 2.98632 | 30987 ft | 337 kts | 207° |
| 2026-05-04 09:30 | 49.98605 | 2.95196 | 30987 ft | 338 kts | 207° |
| 2026-05-04 09:31 | 49.94460 | 2.91767 | 30986 ft | 338 kts | 207° |
| 2026-05-04 09:31 | 49.90301 | 2.88365 | 30979 ft | 338 kts | 206° |
| 2026-05-04 09:32 | 49.86120 | 2.84995 | 30982 ft | 339 kts | 206° |
| 2026-05-04 09:34 | 49.69472 | 2.71428 | 30977 ft | 339 kts | 206° |
| 2026-05-04 09:34 | 49.65286 | 2.68017 | 30996 ft | 342 kts | 206° |
| 2026-05-04 09:35 | 49.61058 | 2.64578 | 30988 ft | 343 kts | 206° |
| 2026-05-04 09:35 | 49.56843 | 2.61153 | 30982 ft | 342 kts | 206° |
| 2026-05-04 09:37 | 49.39963 | 2.47618 | 30986 ft | 343 kts | 205° |
| 2026-05-04 09:38 | 49.35735 | 2.44235 | 30987 ft | 343 kts | 205° |
| 2026-05-04 09:38 | 49.31499 | 2.40853 | 30987 ft | 343 kts | 205° |
| 2026-05-04 09:39 | 49.27295 | 2.37511 | 30985 ft | 343 kts | 205° |
| 2026-05-04 09:39 | 49.23052 | 2.34139 | 30986 ft | 344 kts | 205° |
| 2026-05-04 09:40 | 49.19139 | 2.30000 | 31005 ft | 352 kts | 229° |
| 2026-05-04 09:40 | 49.16631 | 2.23460 | 31002 ft | 359 kts | 236° |
| 2026-05-04 09:42 | 49.07281 | 1.96455 | 31035 ft | 364 kts | 240° |
| 2026-05-04 09:43 | 49.05205 | 1.89390 | 31038 ft | 365 kts | 240° |
| 2026-05-04 09:43 | 49.03146 | 1.82347 | 30996 ft | 363 kts | 240° |
| 2026-05-04 09:44 | 49.01043 | 1.75363 | 31011 ft | 362 kts | 240° |
| 2026-05-04 09:46 | 48.92519 | 1.47339 | 30986 ft | 365 kts | 240° |
| 2026-05-04 09:46 | 48.90395 | 1.40377 | 30982 ft | 365 kts | 240° |
| 2026-05-04 09:47 | 48.88253 | 1.33369 | 30982 ft | 365 kts | 240° |
| 2026-05-04 09:49 | 48.79589 | 1.05533 | 30981 ft | 365 kts | 240° |
| 2026-05-04 09:51 | 48.71549 | 0.81610 | 30974 ft | 360 kts | 234° |
| 2026-05-04 09:51 | 48.68899 | 0.75215 | 30970 ft | 360 kts | 234° |
| 2026-05-04 09:52 | 48.66237 | 0.68782 | 30965 ft | 360 kts | 234° |
| 2026-05-04 09:52 | 48.63608 | 0.62313 | 30968 ft | 360 kts | 235° |
| 2026-05-04 09:53 | 48.60992 | 0.55931 | 30969 ft | 359 kts | 235° |
| 2026-05-04 09:53 | 48.58355 | 0.49474 | 30972 ft | 359 kts | 234° |
| 2026-05-04 09:54 | 48.55742 | 0.43094 | 30994 ft | 359 kts | 234° |
| 2026-05-04 09:54 | 48.53094 | 0.36671 | 30971 ft | 361 kts | 234° |
| 2026-05-04 09:55 | 48.50435 | 0.30232 | 30964 ft | 361 kts | 234° |
| 2026-05-04 09:55 | 48.47773 | 0.23793 | 30963 ft | 361 kts | 234° |
| 2026-05-04 09:56 | 48.45134 | 0.17417 | 30963 ft | 361 kts | 234° |
| 2026-05-04 09:56 | 48.42472 | 0.11000 | 30965 ft | 361 kts | 234° |
| 2026-05-04 09:57 | 48.39799 | 0.04571 | 30965 ft | 362 kts | 234° |
| 2026-05-04 09:57 | 48.37119 | -0.01863 | 30990 ft | 362 kts | 234° |
| 2026-05-04 09:58 | 48.34333 | -0.08126 | 30977 ft | 359 kts | 230° |
| 2026-05-04 09:58 | 48.31349 | -0.14141 | 30969 ft | 358 kts | 229° |
| 2026-05-04 10:00 | 48.19310 | -0.37956 | 30969 ft | 357 kts | 229° |
| 2026-05-04 10:04 | 47.98580 | -0.78179 | 30964 ft | 357 kts | 228° |
| 2026-05-04 10:04 | 47.95547 | -0.84026 | 30964 ft | 356 kts | 229° |
| 2026-05-04 10:05 | 47.92500 | -0.89859 | 30975 ft | 357 kts | 228° |
| 2026-05-04 10:05 | 47.89449 | -0.95651 | 30975 ft | 357 kts | 228° |
| 2026-05-04 10:06 | 47.86398 | -1.01473 | 30976 ft | 356 kts | 228° |
| 2026-05-04 10:06 | 47.83343 | -1.07292 | 30976 ft | 356 kts | 228° |
| 2026-05-04 10:08 | 47.72660 | -1.27584 | 30994 ft | 357 kts | 228° |
| 2026-05-04 10:08 | 47.69597 | -1.33393 | 30979 ft | 357 kts | 228° |
| 2026-05-04 10:09 | 47.66539 | -1.39184 | 30982 ft | 356 kts | 228° |
| 2026-05-04 10:09 | 47.63478 | -1.44972 | 30981 ft | 356 kts | 227° |
| 2026-05-04 10:10 | 47.60415 | -1.50755 | 30983 ft | 356 kts | 228° |
| 2026-05-04 10:10 | 47.57212 | -1.56338 | 30980 ft | 354 kts | 224° |
| 2026-05-04 10:11 | 47.53905 | -1.61741 | 30982 ft | 354 kts | 224° |
| 2026-05-04 10:11 | 47.50580 | -1.67104 | 31021 ft | 354 kts | 224° |
| 2026-05-04 10:12 | 47.47246 | -1.72484 | 30986 ft | 355 kts | 224° |
| 2026-05-04 10:12 | 47.43968 | -1.77866 | 30985 ft | 354 kts | 224° |
| 2026-05-04 10:13 | 47.40656 | -1.83267 | 30998 ft | 355 kts | 224° |
| 2026-05-04 10:13 | 47.37342 | -1.88679 | 30985 ft | 355 kts | 224° |
| 2026-05-04 10:14 | 47.33815 | -1.93695 | 30985 ft | 350 kts | 213° |
| 2026-05-04 10:16 | 47.17215 | -2.08535 | 31064 ft | 351 kts | 209° |
| 2026-05-04 10:16 | 47.13044 | -2.12254 | 31014 ft | 349 kts | 209° |
| 2026-05-04 10:17 | 47.08903 | -2.15932 | 30994 ft | 348 kts | 208° |
| 2026-05-04 10:19 | 46.92315 | -2.30601 | 30986 ft | 348 kts | 209° |
| 2026-05-04 10:19 | 46.88164 | -2.34255 | 30989 ft | 348 kts | 209° |
| 2026-05-04 10:20 | 46.84041 | -2.37882 | 30997 ft | 348 kts | 209° |
| 2026-05-04 10:20 | 46.79881 | -2.41536 | 30990 ft | 348 kts | 209° |
| 2026-05-04 10:21 | 46.75718 | -2.45185 | 31009 ft | 348 kts | 208° |
| 2026-05-04 10:21 | 46.71552 | -2.48825 | 30994 ft | 349 kts | 208° |
| 2026-05-04 10:22 | 46.65342 | -2.54225 | 30990 ft | 348 kts | 208° |
| 2026-05-04 10:23 | 46.61189 | -2.57831 | 30991 ft | 348 kts | 208° |
| 2026-05-04 10:25 | 46.44546 | -2.72282 | 30995 ft | 349 kts | 208° |
| 2026-05-04 10:25 | 46.40398 | -2.75853 | 30994 ft | 349 kts | 208° |
| 2026-05-04 10:26 | 46.36226 | -2.79439 | 30997 ft | 349 kts | 208° |
| 2026-05-04 10:26 | 46.32046 | -2.83037 | 31001 ft | 352 kts | 209° |
| 2026-05-04 10:27 | 46.27834 | -2.86691 | 30999 ft | 353 kts | 208° |
| 2026-05-04 10:27 | 46.23608 | -2.90347 | 30998 ft | 354 kts | 209° |
| 2026-05-04 10:28 | 46.19410 | -2.94052 | 30997 ft | 353 kts | 209° |
| 2026-05-04 10:28 | 46.15200 | -2.97705 | 30998 ft | 353 kts | 209° |
| 2026-05-04 10:29 | 46.11017 | -3.01334 | 30994 ft | 353 kts | 209° |
| 2026-05-04 10:29 | 46.06807 | -3.04989 | 31002 ft | 353 kts | 209° |
| 2026-05-04 10:30 | 46.02605 | -3.08645 | 31002 ft | 352 kts | 209° |
| 2026-05-04 10:30 | 45.98429 | -3.12275 | 31003 ft | 352 kts | 209° |
| 2026-05-04 10:31 | 45.94221 | -3.15897 | 31001 ft | 352 kts | 209° |
| 2026-05-04 10:32 | 45.79449 | -3.28574 | 31006 ft | 353 kts | 209° |
| 2026-05-04 10:33 | 45.75226 | -3.32187 | 31006 ft | 354 kts | 209° |
| 2026-05-04 10:33 | 45.71031 | -3.35772 | 31005 ft | 353 kts | 209° |
| 2026-05-04 10:34 | 45.66825 | -3.39360 | 31005 ft | 351 kts | 209° |
| 2026-05-04 10:34 | 45.62623 | -3.42939 | 31005 ft | 352 kts | 209° |
| 2026-05-04 10:35 | 45.58415 | -3.46520 | 31006 ft | 352 kts | 209° |
| 2026-05-04 10:35 | 45.54201 | -3.50101 | 31006 ft | 352 kts | 209° |
| 2026-05-04 10:36 | 45.49966 | -3.53677 | 31011 ft | 354 kts | 209° |
| 2026-05-04 10:36 | 45.45746 | -3.57228 | 31010 ft | 354 kts | 209° |
| 2026-05-04 10:37 | 45.41479 | -3.60816 | 31012 ft | 354 kts | 209° |
| 2026-05-04 10:37 | 45.37244 | -3.64373 | 31011 ft | 354 kts | 209° |
| 2026-05-04 10:39 | 45.22428 | -3.76800 | 31011 ft | 354 kts | 209° |
| 2026-05-04 10:40 | 45.18188 | -3.80353 | 31011 ft | 354 kts | 209° |
| 2026-05-04 10:40 | 45.13946 | -3.83904 | 31015 ft | 354 kts | 209° |
| 2026-05-04 10:41 | 45.09684 | -3.87450 | 31017 ft | 357 kts | 209° |
| 2026-05-04 10:41 | 45.05410 | -3.90979 | 31016 ft | 358 kts | 209° |
| 2026-05-04 10:42 | 45.01112 | -3.94520 | 31015 ft | 357 kts | 209° |
| 2026-05-04 10:42 | 44.96819 | -3.98055 | 31014 ft | 357 kts | 209° |
| 2026-05-04 10:43 | 44.92525 | -4.01585 | 31016 ft | 358 kts | 209° |
| 2026-05-04 10:45 | 44.75101 | -4.15962 | 31020 ft | 363 kts | 210° |
| 2026-05-04 10:45 | 44.70733 | -4.19538 | 31020 ft | 363 kts | 210° |
| 2026-05-04 10:46 | 44.66384 | -4.23084 | 31020 ft | 363 kts | 210° |
| 2026-05-04 10:46 | 44.62008 | -4.26653 | 31019 ft | 363 kts | 209° |
| 2026-05-04 10:47 | 44.57637 | -4.30222 | 31018 ft | 363 kts | 209° |
| 2026-05-04 10:47 | 44.53265 | -4.33780 | 31008 ft | 363 kts | 209° |
| 2026-05-04 10:49 | 44.35849 | -4.48198 | 31026 ft | 364 kts | 212° |
| 2026-05-04 10:50 | 44.31571 | -4.51989 | 31026 ft | 364 kts | 212° |
| 2026-05-04 10:52 | 44.15076 | -4.66421 | 31033 ft | 367 kts | 212° |
| 2026-05-04 10:52 | 44.10732 | -4.70176 | 31030 ft | 367 kts | 212° |
| 2026-05-04 10:54 | 43.93388 | -4.85176 | 31039 ft | 367 kts | 212° |
| 2026-05-04 10:56 | 43.75978 | -5.00163 | 31047 ft | 367 kts | 213° |
| 2026-05-04 10:57 | 43.71633 | -5.03886 | 31032 ft | 367 kts | 213° |
| 2026-05-04 10:57 | 43.67300 | -5.07571 | 31045 ft | 368 kts | 213° |
| 2026-05-04 10:58 | 43.62932 | -5.11265 | 31046 ft | 369 kts | 213° |
| 2026-05-04 10:58 | 43.58561 | -5.14983 | 31049 ft | 368 kts | 213° |
| 2026-05-04 10:59 | 43.54195 | -5.18680 | 31046 ft | 368 kts | 213° |
| 2026-05-04 10:59 | 43.49834 | -5.22394 | 31040 ft | 368 kts | 213° |
| 2026-05-04 11:00 | 43.45489 | -5.26090 | 31044 ft | 369 kts | 213° |
| 2026-05-04 11:02 | 43.28032 | -5.40822 | 31032 ft | 367 kts | 214° |
| 2026-05-04 11:05 | 42.95222 | -5.68190 | 31012 ft | 369 kts | 214° |
| 2026-05-04 11:06 | 42.90836 | -5.71831 | 31010 ft | 368 kts | 214° |
| 2026-05-04 11:06 | 42.86504 | -5.75410 | 30978 ft | 366 kts | 214° |
| 2026-05-04 11:08 | 42.72549 | -5.89990 | 31004 ft | 362 kts | 237° |
| 2026-05-04 11:10 | 42.64017 | -6.10860 | 31003 ft | 360 kts | 242° |
| 2026-05-04 11:12 | 42.54358 | -6.34555 | 31004 ft | 359 kts | 242° |
| 2026-05-04 11:12 | 42.51944 | -6.40486 | 31018 ft | 359 kts | 242° |
| 2026-05-04 11:13 | 42.49517 | -6.46395 | 31013 ft | 359 kts | 242° |
| 2026-05-04 11:13 | 42.47108 | -6.52324 | 31015 ft | 358 kts | 242° |
| 2026-05-04 11:14 | 42.44685 | -6.58211 | 31014 ft | 358 kts | 242° |
| 2026-05-04 11:16 | 42.35008 | -6.81685 | 31027 ft | 358 kts | 242° |
| 2026-05-04 11:16 | 42.32582 | -6.87566 | 31040 ft | 358 kts | 242° |
| 2026-05-04 11:17 | 42.30169 | -6.93405 | 31038 ft | 357 kts | 242° |
| 2026-05-04 11:19 | 42.20421 | -7.16727 | 31037 ft | 356 kts | 242° |
| 2026-05-04 11:19 | 42.17984 | -7.22538 | 31048 ft | 356 kts | 242° |
| 2026-05-04 11:20 | 42.15541 | -7.28286 | 31036 ft | 355 kts | 242° |
| 2026-05-04 11:20 | 42.13099 | -7.34070 | 31042 ft | 355 kts | 243° |
| 2026-05-04 11:22 | 42.03316 | -7.57155 | 31037 ft | 354 kts | 243° |
| 2026-05-04 11:23 | 42.00869 | -7.62911 | 31044 ft | 354 kts | 243° |
| 2026-05-04 11:25 | 41.92344 | -7.82937 | 31024 ft | 353 kts | 243° |
| 2026-05-04 11:25 | 41.89907 | -7.88644 | 31032 ft | 352 kts | 243° |
| 2026-05-04 11:27 | 41.78987 | -8.14389 | 31073 ft | 352 kts | 245° |
| 2026-05-04 11:28 | 41.76770 | -8.20180 | 31092 ft | 351 kts | 245° |
| 2026-05-04 11:28 | 41.74510 | -8.25985 | 31105 ft | 351 kts | 245° |
| 2026-05-04 11:29 | 41.73374 | -8.28896 | 30972 ft | 355 kts | 245° |
| 2026-05-04 11:29 | 41.72225 | -8.31839 | 30554 ft | 356 kts | 245° |
| 2026-05-04 11:29 | 41.71082 | -8.34772 | 30162 ft | 355 kts | 245° |
| 2026-05-04 11:29 | 41.69939 | -8.37692 | 29636 ft | 354 kts | 245° |
| 2026-05-04 11:31 | 41.61807 | -8.58366 | 25917 ft | 363 kts | 245° |
| 2026-05-04 11:33 | 41.53440 | -8.79365 | 22065 ft | 357 kts | 245° |
| 2026-05-04 11:33 | 41.52296 | -8.82268 | 21393 ft | 350 kts | 245° |
| 2026-05-04 11:33 | 41.51074 | -8.85054 | 20740 ft | 350 kts | 234° |
| 2026-05-04 11:34 | 41.49148 | -8.87066 | 20122 ft | 360 kts | 208° |
| 2026-05-04 11:34 | 41.46692 | -8.87811 | 19555 ft | 370 kts | 185° |
| 2026-05-04 11:34 | 41.44124 | -8.87343 | 18971 ft | 375 kts | 171° |
| 2026-05-04 11:34 | 41.41586 | -8.86509 | 18371 ft | 373 kts | 170° |
| 2026-05-04 11:35 | 41.39073 | -8.85672 | 17703 ft | 370 kts | 170° |
| 2026-05-04 11:35 | 41.36591 | -8.84862 | 17041 ft | 365 kts | 171° |
| 2026-05-04 11:35 | 41.34127 | -8.84102 | 16389 ft | 361 kts | 171° |
| 2026-05-04 11:35 | 41.31710 | -8.83400 | 15747 ft | 358 kts | 172° |
| 2026-05-04 11:36 | 41.29277 | -8.82743 | 15071 ft | 355 kts | 172° |
| 2026-05-04 11:36 | 41.26865 | -8.82111 | 14417 ft | 353 kts | 172° |
| 2026-05-04 11:36 | 41.24463 | -8.81477 | 13754 ft | 351 kts | 172° |
| 2026-05-04 11:36 | 41.22077 | -8.80846 | 13020 ft | 349 kts | 172° |
| 2026-05-04 11:37 | 41.19695 | -8.80226 | 12312 ft | 348 kts | 171° |
| 2026-05-04 11:37 | 41.17331 | -8.79604 | 11620 ft | 344 kts | 171° |
| 2026-05-04 11:37 | 41.15073 | -8.78990 | 10946 ft | 313 kts | 171° |
| 2026-05-04 11:37 | 41.12981 | -8.78422 | 10261 ft | 299 kts | 171° |
| 2026-05-04 11:38 | 41.10920 | -8.77868 | 9548 ft | 305 kts | 171° |
| 2026-05-04 11:38 | 41.08831 | -8.77320 | 8826 ft | 307 kts | 171° |
| 2026-05-04 11:38 | 41.06816 | -8.76791 | 8116 ft | 290 kts | 171° |
| 2026-05-04 11:38 | 41.04845 | -8.76281 | 7414 ft | 286 kts | 171° |
| 2026-05-04 11:39 | 41.02899 | -8.75778 | 6739 ft | 284 kts | 171° |
| 2026-05-04 11:39 | 41.01618 | -8.75445 | 6288 ft | 283 kts | 170° |
| 2026-05-04 11:40 | 40.97738 | -8.64860 | 3965 ft | 230 kts | 68° |
| 2026-05-04 11:41 | 40.98651 | -8.63193 | 3893 ft | 225 kts | 30° |
| 2026-05-04 11:41 | 41.00097 | -8.62549 | 3764 ft | 220 kts | 5° |
| 2026-05-04 11:41 | 41.01616 | -8.62395 | 3627 ft | 219 kts | 358° |
| 2026-05-04 11:41 | 41.03131 | -8.62516 | 3498 ft | 217 kts | 351° |
| 2026-05-04 11:42 | 41.04613 | -8.62802 | 3336 ft | 213 kts | 348° |
| 2026-05-04 11:42 | 41.06021 | -8.63151 | 3199 ft | 198 kts | 346° |
| 2026-05-04 11:42 | 41.07337 | -8.63519 | 3042 ft | 189 kts | 345° |
| 2026-05-04 11:42 | 41.08608 | -8.63883 | 3008 ft | 185 kts | 345° |
| 2026-05-04 11:43 | 41.09850 | -8.64236 | 3016 ft | 179 kts | 345° |
| 2026-05-04 11:43 | 41.11037 | -8.64557 | 3058 ft | 169 kts | 345° |
| 2026-05-04 11:43 | 41.12158 | -8.64895 | 3094 ft | 164 kts | 343° |
| 2026-05-04 11:43 | 41.13290 | -8.65226 | 2975 ft | 167 kts | 348° |
| 2026-05-04 11:44 | 41.14423 | -8.65405 | 2731 ft | 161 kts | 350° |
| 2026-05-04 11:44 | 41.15501 | -8.65611 | 2359 ft | 152 kts | 347° |
| 2026-05-04 11:44 | 41.16496 | -8.65876 | 2031 ft | 144 kts | 343° |
| 2026-05-04 11:44 | 41.17462 | -8.66180 | 1764 ft | 135 kts | 343° |
| 2026-05-04 11:45 | 41.18365 | -8.66417 | 1502 ft | 131 kts | 346° |
| 2026-05-04 11:45 | 41.19246 | -8.66653 | 1253 ft | 128 kts | 344° |
| 2026-05-04 11:45 | 41.20113 | -8.66882 | 1014 ft | 126 kts | 344° |
| 2026-05-04 11:45 | 41.20916 | -8.67093 | 793 ft | 109 kts | 345° |
| 2026-05-04 11:46 | 41.21642 | -8.67300 | 599 ft | 105 kts | 346° |
| 2026-05-04 11:46 | 41.22357 | -8.67494 | 478 ft | 105 kts | 346° |
| 2026-05-04 11:46 | 41.23079 | -8.67676 | 332 ft | 106 kts | 348° |
| 2026-05-04 11:46 | 41.23802 | -8.67864 | 224 ft | 102 kts | 348° |
| 2026-05-04 11:47 | 41.24404 | -8.68020 | 209 ft | 76 kts | 349° |
| 2026-05-04 11:47 | 41.24860 | -8.68140 | 193 ft | 53 kts | 349° |
| 2026-05-04 11:47 | 41.25120 | -8.68170 | 181 ft | 32 kts | 12° |
| 2026-05-04 11:47 | 41.25285 | -8.68103 | 176 ft | 14 kts | 36° |
| 2026-05-04 11:48 | 41.25265 | -8.68019 | 177 ft | 9 kts | 158° |
| 2026-05-04 11:48 | 41.25219 | -8.68002 | 180 ft | 5 kts | 169° |
| 2026-05-04 11:48 | 41.25196 | -8.67996 | 181 ft | 2 kts | 170° |
| 2026-05-04 11:48 | 41.25153 | -8.67986 | 183 ft | 10 kts | 170° |
| 2026-05-04 11:49 | 41.25055 | -8.67962 | 188 ft | 18 kts | 169° |
| 2026-05-04 11:49 | 41.24922 | -8.67926 | 190 ft | 21 kts | 166° |
| 2026-05-04 11:49 | 41.24776 | -8.67838 | 205 ft | 23 kts | 161° |
| 2026-05-04 11:49 | 41.24641 | -8.67796 | 210 ft | 17 kts | 169° |
| 2026-05-04 11:50 | 41.24521 | -8.67765 | 217 ft | 19 kts | 169° |
| 2026-05-04 11:50 | 41.24397 | -8.67732 | 221 ft | 18 kts | 168° |
| 2026-05-04 11:50 | 41.24286 | -8.67680 | 228 ft | 17 kts | 128° |
| 2026-05-04 11:50 | 41.24221 | -8.67563 | 238 ft | 14 kts | 127° |
| 2026-05-04 11:51 | 41.24149 | -8.67476 | 236 ft | 15 kts | 149° |
| 2026-05-04 11:51 | 41.24050 | -8.67425 | 236 ft | 15 kts | 168° |
| 2026-05-04 11:51 | 41.24017 | -8.67379 | 236 ft | 7 kts | 92° |
| 2026-05-04 11:51 | 41.24017 | -8.67319 | 237 ft | 1 kts | 90° |
| 2026-05-04 11:52 | 41.24017 | -8.67310 | 237 ft | 0 kts | 90° |